createdAt,value
2019-02-04T00:00:39.676Z,6.27
2019-02-04T00:03:12.408Z,6.30
2019-02-04T00:05:44.507Z,5.67
2019-02-04T00:08:16.479Z,6.30
2019-02-04T00:10:48.408Z,6.17
2019-02-04T00:13:25.876Z,5.50
2019-02-04T00:15:57.714Z,6.03
2019-02-04T00:18:29.571Z,5.70
2019-02-04T00:21:01.056Z,5.40
2019-02-04T00:23:32.748Z,5.83
2019-02-04T00:26:04.571Z,4.67
2019-02-04T00:28:36.172Z,5.37
2019-02-04T00:31:07.713Z,4.50
2019-02-04T00:33:39.481Z,5.23
2019-02-04T00:36:11.499Z,4.87
2019-02-04T00:38:43.585Z,5.37
2019-02-04T00:41:15.547Z,5.13
2019-02-04T00:43:46.945Z,5.27
2019-02-04T00:46:19.101Z,4.90
2019-02-04T00:48:50.785Z,5.10
2019-02-04T00:51:22.433Z,5.10
2019-02-04T00:53:54.150Z,4.13
2019-02-04T00:56:28.633Z,4.07
2019-02-04T00:59:00.600Z,4.00
2019-02-04T01:01:32.744Z,4.40
2019-02-04T01:04:04.395Z,4.00
2019-02-04T01:06:43.384Z,4.20
2019-02-04T01:09:15.447Z,4.17
2019-02-04T01:11:46.984Z,3.93
2019-02-04T01:14:18.527Z,4.43
2019-02-04T01:16:49.942Z,4.50
2019-02-04T01:19:21.451Z,4.67
2019-02-04T01:21:53.012Z,4.80
2019-02-04T01:24:24.557Z,4.70
2019-02-04T01:26:56.242Z,5.17
2019-02-04T01:29:28.132Z,5.43
2019-02-04T01:32:00.133Z,5.10
2019-02-04T01:34:32.547Z,5.57
2019-02-04T01:37:04.032Z,5.83
2019-02-04T01:39:35.626Z,5.60
2019-02-04T01:42:12.406Z,5.87
2019-02-04T01:44:44.288Z,5.90
2019-02-04T01:47:15.904Z,5.37
2019-02-04T01:49:47.450Z,6.00
2019-02-04T01:52:19.485Z,6.13
2019-02-04T01:54:51.261Z,5.63
2019-02-04T01:57:23.259Z,6.03
2019-02-04T01:59:54.988Z,5.80
2019-02-04T02:02:32.449Z,5.87
2019-02-04T02:05:04.345Z,6.03
2019-02-04T02:07:36.153Z,5.90
2019-02-04T02:10:10.032Z,6.23
2019-02-04T02:12:42.438Z,6.43
2019-02-04T02:15:15.452Z,7.43
2019-02-04T02:17:46.707Z,8.00
2019-02-04T02:20:23.596Z,11.07
2019-02-04T02:22:55.142Z,8.03
2019-02-04T02:25:26.566Z,6.60
2019-02-04T02:27:58.386Z,7.33
2019-02-04T02:30:32.877Z,6.77
2019-02-04T02:33:04.503Z,6.80
2019-02-04T02:35:36.155Z,8.77
2019-02-04T02:38:07.438Z,8.10
2019-02-04T02:40:39.403Z,6.67
2019-02-04T02:43:11.764Z,6.87
2019-02-04T02:45:43.471Z,6.80
2019-02-04T02:48:15.247Z,7.30
2019-02-04T02:50:46.641Z,7.57
2019-02-04T02:53:18.441Z,6.80
2019-02-04T02:55:50.044Z,7.63
2019-02-04T02:58:21.557Z,7.57
2019-02-04T03:00:53.437Z,7.13
2019-02-04T03:03:25.139Z,7.60
2019-02-04T03:06:04.600Z,8.00
2019-02-04T03:08:36.545Z,7.40
2019-02-04T03:11:08.321Z,8.00
2019-02-04T03:13:39.924Z,7.70
2019-02-04T03:16:13.323Z,6.97
2019-02-04T03:18:44.998Z,7.70
2019-02-04T03:21:16.775Z,7.60
2019-02-04T03:23:48.489Z,7.37
2019-02-04T03:26:19.996Z,7.37
2019-02-04T03:28:52.030Z,6.90
2019-02-04T03:31:24.258Z,7.33
2019-02-04T03:33:55.761Z,7.60
2019-02-04T03:36:27.553Z,7.47
2019-02-04T03:38:59.466Z,8.33
2019-02-04T03:41:31.685Z,7.17
2019-02-04T03:44:03.066Z,7.83
2019-02-04T03:46:34.725Z,7.30
2019-02-04T03:49:06.125Z,7.43
2019-02-04T03:51:38.474Z,7.50
2019-02-04T03:54:09.777Z,6.67
2019-02-04T03:56:42.083Z,7.10
2019-02-04T03:59:13.729Z,7.27
2019-02-04T04:01:45.719Z,6.73
2019-02-04T04:04:17.519Z,6.63
2019-02-04T04:06:48.904Z,6.47
2019-02-04T04:09:20.758Z,6.93
2019-02-04T04:12:05.349Z,7.00
2019-02-04T04:14:37.122Z,6.67
2019-02-04T04:17:08.892Z,5.97
2019-02-04T04:19:42.345Z,5.30
2019-02-04T04:22:14.368Z,5.70
2019-02-04T04:24:48.849Z,5.57
2019-02-04T04:27:20.872Z,5.17
2019-02-04T04:29:52.190Z,6.00
2019-02-04T04:32:23.901Z,4.87
2019-02-04T04:34:55.600Z,5.37
2019-02-04T04:37:31.024Z,5.23
2019-02-04T04:40:04.621Z,4.90
2019-02-04T04:42:36.521Z,5.20
2019-02-04T04:45:08.422Z,5.10
2019-02-04T04:47:39.884Z,5.60
2019-02-04T04:50:12.217Z,5.00
2019-02-04T04:52:48.966Z,5.30
2019-02-04T04:55:26.110Z,4.80
2019-02-04T04:57:58.093Z,5.17
2019-02-04T05:00:31.998Z,5.43
2019-02-04T05:03:03.843Z,5.50
2019-02-04T05:05:35.465Z,4.70
2019-02-04T05:08:07.429Z,6.53
2019-02-04T05:10:38.855Z,5.30
2019-02-04T05:13:10.641Z,4.57
2019-02-04T05:15:42.410Z,5.57
2019-02-04T05:18:13.949Z,4.17
2019-02-04T05:20:48.173Z,3.90
2019-02-04T05:23:25.430Z,3.93
2019-02-04T05:25:57.238Z,3.70
2019-02-04T05:28:28.732Z,4.60
2019-02-04T05:31:00.396Z,3.70
2019-02-04T05:33:32.239Z,3.37
2019-02-04T05:36:05.152Z,2.83
2019-02-04T05:38:36.430Z,3.50
2019-02-04T05:41:08.069Z,4.03
2019-02-04T05:43:39.555Z,3.83
2019-02-04T05:46:11.219Z,3.40
2019-02-04T05:48:49.403Z,3.03
2019-02-04T05:51:18.387Z,3.30
2019-02-04T05:53:49.919Z,3.23
2019-02-04T05:56:23.081Z,3.20
2019-02-04T05:58:54.707Z,3.63
2019-02-04T06:01:26.380Z,3.17
2019-02-04T06:03:57.844Z,3.20
2019-02-04T06:06:29.517Z,3.70
2019-02-04T06:09:01.178Z,3.57
2019-02-04T06:11:39.416Z,3.97
2019-02-04T06:14:11.506Z,3.67
2019-02-04T06:16:43.765Z,4.47
2019-02-04T06:19:15.618Z,4.23
2019-02-04T06:21:47.745Z,4.37
2019-02-04T06:24:19.439Z,3.30
2019-02-04T06:26:51.102Z,3.67
2019-02-04T06:29:22.749Z,3.50
2019-02-04T06:31:54.623Z,3.10
2019-02-04T06:34:26.383Z,3.00
2019-02-04T06:36:58.388Z,6.97
2019-02-04T06:39:30.273Z,3.23
2019-02-04T06:42:07.252Z,3.73
2019-02-04T06:44:41.373Z,3.07
2019-02-04T06:47:12.776Z,2.70
2019-02-04T06:49:44.715Z,3.03
2019-02-04T06:52:21.586Z,2.90
2019-02-04T06:54:53.254Z,3.27
2019-02-04T06:57:25.734Z,3.23
2019-02-04T06:59:57.593Z,3.00
2019-02-04T07:02:29.105Z,2.60
2019-02-04T07:05:01.463Z,3.47
2019-02-04T07:07:33.061Z,3.33
2019-02-04T07:10:05.085Z,3.70
2019-02-04T07:12:36.681Z,3.80
2019-02-04T07:15:08.447Z,3.27
2019-02-04T07:17:39.975Z,3.60
2019-02-04T07:20:15.421Z,3.93
2019-02-04T07:22:47.162Z,3.57
2019-02-04T07:25:19.318Z,3.37
2019-02-04T07:27:50.820Z,3.57
2019-02-04T07:30:25.736Z,3.37
2019-02-04T07:32:57.797Z,3.70
2019-02-04T07:35:29.903Z,3.20
2019-02-04T07:38:01.554Z,3.60
2019-02-04T07:40:34.037Z,4.23
2019-02-04T07:43:05.601Z,4.37
2019-02-04T07:45:37.504Z,5.33
2019-02-04T07:48:08.886Z,4.40
2019-02-04T07:50:41.394Z,4.70
2019-02-04T07:53:13.810Z,4.77
2019-02-04T07:55:46.085Z,3.23
2019-02-04T07:58:17.466Z,3.67
2019-02-04T08:00:49.087Z,4.13
2019-02-04T08:03:20.919Z,4.27
2019-02-04T08:05:52.699Z,5.10
2019-02-04T08:08:24.457Z,4.83
2019-02-04T08:10:56.160Z,5.00
2019-02-04T08:13:28.096Z,4.97
2019-02-04T08:16:01.658Z,3.73
2019-02-04T08:18:33.720Z,3.80
2019-02-04T08:21:05.624Z,3.90
2019-02-04T08:23:37.147Z,3.30
2019-02-04T08:26:10.117Z,4.17
2019-02-04T08:28:42.528Z,4.43
2019-02-04T08:31:14.073Z,3.20
2019-02-04T08:33:46.215Z,4.40
2019-02-04T08:36:17.632Z,3.70
2019-02-04T08:38:49.125Z,4.17
2019-02-04T08:41:20.852Z,3.90
2019-02-04T08:43:52.372Z,4.60
2019-02-04T08:46:25.412Z,3.77
2019-02-04T08:48:59.259Z,4.23
2019-02-04T08:51:33.170Z,3.77
2019-02-04T08:54:04.613Z,3.60
2019-02-04T08:56:36.290Z,3.73
2019-02-04T08:59:09.720Z,3.80
2019-02-04T09:01:45.294Z,3.13
2019-02-04T09:04:20.459Z,3.70
2019-02-04T09:06:51.989Z,3.53
2019-02-04T09:09:23.361Z,3.30
2019-02-04T09:11:54.869Z,3.33
2019-02-04T09:14:26.449Z,3.73
2019-02-04T09:16:58.069Z,3.80
2019-02-04T09:19:29.747Z,4.20
2019-02-04T09:22:02.717Z,5.40
2019-02-04T09:24:34.655Z,4.50
2019-02-04T09:27:06.124Z,4.00
2019-02-04T09:29:37.660Z,4.40
2019-02-04T09:32:17.670Z,4.07
2019-02-04T09:34:50.544Z,3.67
2019-02-04T09:37:24.923Z,3.83
2019-02-04T09:39:56.532Z,2.90
2019-02-04T09:42:28.511Z,3.30
2019-02-04T09:45:00.860Z,3.07
2019-02-04T09:47:32.780Z,3.77
2019-02-04T09:50:04.655Z,5.07
2019-02-04T09:52:36.262Z,4.43
2019-02-04T09:55:11.219Z,4.77
2019-02-04T09:57:45.767Z,8.30
2019-02-04T10:00:20.555Z,2.57
2019-02-04T10:02:52.800Z,6.97
2019-02-04T10:05:24.577Z,4.63
2019-02-04T10:07:57.359Z,7.17
2019-02-04T10:10:29.982Z,4.40
2019-02-04T10:13:01.834Z,6.00
2019-02-04T10:15:36.123Z,4.20
2019-02-04T10:18:09.980Z,5.10
2019-02-04T10:20:42.642Z,8.83
2019-02-04T10:23:14.523Z,4.10
2019-02-04T10:25:45.913Z,4.20
2019-02-04T10:28:17.584Z,4.37
2019-02-04T10:30:48.934Z,6.37
2019-02-04T10:33:20.933Z,9.63
2019-02-04T10:35:53.550Z,8.13
2019-02-04T10:38:27.037Z,5.67
2019-02-04T10:40:58.819Z,4.60
2019-02-04T10:43:32.883Z,3.73
2019-02-04T10:46:04.950Z,2.90
2019-02-04T10:48:36.595Z,3.87
2019-02-04T10:51:08.267Z,3.60
2019-02-04T10:53:40.089Z,5.53
2019-02-04T10:56:12.108Z,5.90
2019-02-04T10:58:46.021Z,3.87
2019-02-04T11:01:17.952Z,4.03
2019-02-04T11:03:50.054Z,3.50
2019-02-04T11:06:21.733Z,4.87
2019-02-04T11:08:53.911Z,4.33
2019-02-04T11:11:26.046Z,4.10
2019-02-04T11:13:58.010Z,4.90
2019-02-04T11:16:29.887Z,6.23
2019-02-04T11:19:01.553Z,5.90
2019-02-04T11:21:34.047Z,6.30
2019-02-04T11:24:06.617Z,6.60
2019-02-04T11:26:38.170Z,5.60
2019-02-04T11:29:09.547Z,5.87
2019-02-04T11:31:41.009Z,5.77
2019-02-04T11:34:13.101Z,5.07
2019-02-04T11:36:44.973Z,5.60
2019-02-04T11:39:16.676Z,5.40
2019-02-04T11:41:53.471Z,4.50
2019-02-04T11:44:25.625Z,4.80
2019-02-04T11:46:57.172Z,4.53
2019-02-04T11:49:28.639Z,4.60
2019-02-04T11:52:00.819Z,3.93
2019-02-04T11:54:32.567Z,3.60
2019-02-04T11:57:04.189Z,4.07
2019-02-04T11:59:36.017Z,3.83
2019-02-04T12:02:07.900Z,4.93
2019-02-04T12:04:40.131Z,4.90
2019-02-04T12:07:11.817Z,4.47
2019-02-04T12:09:43.707Z,5.13
2019-02-04T12:12:15.656Z,3.43
2019-02-04T12:14:47.299Z,3.57
2019-02-04T12:17:18.776Z,3.07
2019-02-04T12:19:50.481Z,4.57
2019-02-04T12:22:21.803Z,4.10
2019-02-04T12:24:53.353Z,4.17
2019-02-04T12:27:31.892Z,4.53
2019-02-04T12:29:58.710Z,5.00
2019-02-04T12:32:30.652Z,4.93
2019-02-04T12:35:02.087Z,4.73
2019-02-04T12:37:35.043Z,7.80
2019-02-04T12:40:07.192Z,6.87
2019-02-04T12:42:39.099Z,5.47
2019-02-04T12:45:15.395Z,5.20
2019-02-04T12:47:47.024Z,6.53
2019-02-04T12:50:18.512Z,7.10
2019-02-04T12:52:55.478Z,6.07
2019-02-04T12:55:28.559Z,5.07
2019-02-04T12:58:01.365Z,5.33
2019-02-04T13:00:33.215Z,4.73
2019-02-04T13:03:07.500Z,4.60
2019-02-04T13:05:48.183Z,4.40
2019-02-04T13:08:19.904Z,3.93
2019-02-04T13:10:51.624Z,4.67
2019-02-04T13:13:24.090Z,4.80
2019-02-04T13:15:56.065Z,5.40
2019-02-04T13:18:28.323Z,3.93
2019-02-04T13:21:00.312Z,5.43
2019-02-04T13:23:34.055Z,4.70
2019-02-04T13:26:06.064Z,4.47
2019-02-04T13:28:37.834Z,4.33
2019-02-04T13:31:09.556Z,6.43
2019-02-04T13:33:41.859Z,5.77
2019-02-04T13:36:15.016Z,5.93
2019-02-04T13:38:46.765Z,5.80
2019-02-04T13:41:18.418Z,5.97
2019-02-04T13:43:50.098Z,5.33
2019-02-04T13:46:21.761Z,4.83
2019-02-04T13:48:53.425Z,5.27
2019-02-04T13:51:25.697Z,3.83
2019-02-04T13:53:57.942Z,4.37
2019-02-04T13:56:29.629Z,4.73
2019-02-04T13:59:01.428Z,5.70
2019-02-04T14:01:33.908Z,6.60
2019-02-04T14:04:05.657Z,5.70
2019-02-04T14:06:37.714Z,7.53
2019-02-04T14:09:19.684Z,8.80
2019-02-04T14:11:51.328Z,5.77
2019-02-04T14:14:22.799Z,6.57
2019-02-04T14:16:54.450Z,5.87
2019-02-04T14:19:26.079Z,3.90
2019-02-04T14:22:08.628Z,3.70
2019-02-04T14:24:31.915Z,4.70
2019-02-04T14:27:03.308Z,4.30
2019-02-04T14:29:34.959Z,4.03
2019-02-04T14:32:06.929Z,5.13
2019-02-04T14:34:38.492Z,6.37
2019-02-04T14:37:10.120Z,5.20
2019-02-04T14:39:42.469Z,8.70
2019-02-04T14:42:17.588Z,6.00
2019-02-04T14:45:25.267Z,5.43
2019-02-04T14:48:36.131Z,6.30
2019-02-04T14:51:40.052Z,7.07
2019-02-04T14:55:01.070Z,6.87
2019-02-04T14:58:06.286Z,8.63
2019-02-04T15:01:13.470Z,12.83
2019-02-04T15:04:36.190Z,11.20
2019-02-04T15:07:55.288Z,9.83
2019-02-04T15:10:51.107Z,9.03
2019-02-04T15:13:57.955Z,8.50
2019-02-04T15:16:43.657Z,8.83
2019-02-04T15:20:02.743Z,9.23
2019-02-04T15:23:06.053Z,9.70
2019-02-04T15:26:17.572Z,11.43
2019-02-04T15:29:11.211Z,9.27
2019-02-04T15:32:14.583Z,11.37
2019-02-04T15:35:22.213Z,11.83
2019-02-04T15:38:37.791Z,10.50
2019-02-04T15:41:21.332Z,12.20
2019-02-04T15:44:08.444Z,10.53
2019-02-04T15:47:13.868Z,9.97
2019-02-04T15:50:12.761Z,9.93
2019-02-04T15:52:45.925Z,12.33
2019-02-04T15:55:21.885Z,13.13
2019-02-04T15:57:54.511Z,13.20
2019-02-04T16:00:26.085Z,13.53
2019-02-04T16:02:58.182Z,15.03
2019-02-04T16:05:32.768Z,14.17
2019-02-04T16:08:04.436Z,13.93
2019-02-04T16:10:36.464Z,15.67
2019-02-04T16:13:08.685Z,13.23
2019-02-04T16:15:42.541Z,13.57
2019-02-04T16:18:14.700Z,13.97
2019-02-04T16:20:46.724Z,13.70
2019-02-04T16:23:18.554Z,14.50
2019-02-04T16:25:50.103Z,14.47
2019-02-04T16:28:22.212Z,14.53
2019-02-04T16:30:53.614Z,13.87
2019-02-04T16:33:25.632Z,13.70
2019-02-04T16:35:57.521Z,14.30
2019-02-04T16:38:29.171Z,13.67
2019-02-04T16:41:01.170Z,17.67
2019-02-04T16:43:35.712Z,16.77
2019-02-04T16:46:10.655Z,20.13
2019-02-04T16:48:42.888Z,22.03
2019-02-04T16:51:14.328Z,21.93
2019-02-04T16:53:46.297Z,20.53
2019-02-04T16:56:18.666Z,19.33
2019-02-04T16:58:50.149Z,18.00
2019-02-04T17:01:22.085Z,17.07
2019-02-04T17:03:53.320Z,18.07
2019-02-04T17:06:24.874Z,16.87
2019-02-04T17:08:56.654Z,17.97
2019-02-04T17:11:28.921Z,17.57
2019-02-04T17:14:02.198Z,15.40
2019-02-04T17:16:34.974Z,16.90
2019-02-04T17:19:06.564Z,16.87
2019-02-04T17:21:39.253Z,16.03
2019-02-04T17:24:10.976Z,15.57
2019-02-04T17:26:42.774Z,15.23
2019-02-04T17:29:14.634Z,13.53
2019-02-04T17:31:51.407Z,20.80
2019-02-04T17:34:23.113Z,23.57
2019-02-04T17:36:54.875Z,17.23
2019-02-04T17:39:26.323Z,15.83
2019-02-04T17:41:58.596Z,16.60
2019-02-04T17:44:30.749Z,17.17
2019-02-04T17:47:03.052Z,18.43
2019-02-04T17:49:34.743Z,18.33
2019-02-04T17:52:06.483Z,17.00
2019-02-04T17:54:39.595Z,16.17
2019-02-04T17:57:11.533Z,15.93
2019-02-04T17:59:43.288Z,15.67
2019-02-04T18:02:15.080Z,13.73
2019-02-04T18:04:46.975Z,15.40
2019-02-04T18:07:20.579Z,14.30
2019-02-04T18:09:51.641Z,13.50
2019-02-04T18:12:31.164Z,15.33
2019-02-04T18:15:04.133Z,13.80
2019-02-04T18:17:35.823Z,14.33
2019-02-04T18:20:09.066Z,14.23
2019-02-04T18:22:40.952Z,13.40
2019-02-04T18:25:14.219Z,13.40
2019-02-04T18:27:46.388Z,13.07
2019-02-04T18:30:18.974Z,14.87
2019-02-04T18:32:51.009Z,15.10
2019-02-04T18:35:22.808Z,14.10
2019-02-04T18:37:54.426Z,15.60
2019-02-04T18:40:27.323Z,14.60
2019-02-04T18:42:59.588Z,13.23
2019-02-04T18:45:32.176Z,13.13
2019-02-04T18:48:04.295Z,13.83
2019-02-04T18:50:36.062Z,14.43
2019-02-04T18:53:08.109Z,14.53
2019-02-04T18:55:39.405Z,14.20
2019-02-04T18:58:11.426Z,13.97
2019-02-04T19:00:43.511Z,14.13
2019-02-04T19:03:17.759Z,13.50
2019-02-04T19:05:49.307Z,14.60
2019-02-04T19:08:21.459Z,14.37
2019-02-04T19:10:53.129Z,14.60
2019-02-04T19:13:35.696Z,14.87
2019-02-04T19:15:58.573Z,16.53
2019-02-04T19:18:32.116Z,14.97
2019-02-04T19:21:03.684Z,15.83
2019-02-04T19:23:37.275Z,15.17
2019-02-04T19:26:08.775Z,14.17
2019-02-04T19:28:42.574Z,13.50
2019-02-04T19:31:21.388Z,13.13
2019-02-04T19:33:52.924Z,13.23
2019-02-04T19:36:25.286Z,12.80
2019-02-04T19:38:56.959Z,12.83
2019-02-04T19:41:28.762Z,13.03
2019-02-04T19:44:00.579Z,12.37
2019-02-04T19:46:32.238Z,12.63
2019-02-04T19:49:05.639Z,12.17
2019-02-04T19:51:47.636Z,13.40
2019-02-04T19:54:21.532Z,13.53
2019-02-04T19:56:53.050Z,13.43
2019-02-04T19:59:25.546Z,13.80
2019-02-04T20:01:57.610Z,14.03
2019-02-04T20:04:29.963Z,13.30
2019-02-04T20:07:01.866Z,13.77
2019-02-04T20:09:34.415Z,15.13
2019-02-04T20:12:06.844Z,15.47
2019-02-04T20:14:38.507Z,16.43
2019-02-04T20:17:10.340Z,16.57
2019-02-04T20:19:42.200Z,15.03
2019-02-04T20:22:13.978Z,17.83
2019-02-04T20:24:46.004Z,22.63
2019-02-04T20:27:18.018Z,20.20
2019-02-04T20:29:50.034Z,17.60
2019-02-04T20:32:22.355Z,17.10
2019-02-04T20:34:54.746Z,14.67
2019-02-04T20:37:29.214Z,14.90
2019-02-04T20:40:05.479Z,14.23
2019-02-04T20:42:38.575Z,16.83
2019-02-04T20:45:13.016Z,16.77
2019-02-04T20:47:45.861Z,16.03
2019-02-04T20:50:21.370Z,13.00
2019-02-04T20:52:54.265Z,12.17
2019-02-04T20:55:26.386Z,11.20
2019-02-04T20:57:58.507Z,11.47
2019-02-04T21:00:32.538Z,11.47
2019-02-04T21:03:05.206Z,12.10
2019-02-04T21:05:37.057Z,11.87
2019-02-04T21:08:09.370Z,12.77
2019-02-04T21:10:42.262Z,15.27
2019-02-04T21:13:14.064Z,15.17
2019-02-04T21:15:46.155Z,12.73
2019-02-04T21:18:18.358Z,12.20
2019-02-04T21:20:50.261Z,12.57
2019-02-04T21:23:22.117Z,12.00
2019-02-04T21:25:53.737Z,11.73
2019-02-04T21:28:25.327Z,11.60
2019-02-04T21:30:56.651Z,12.50
2019-02-04T21:33:28.945Z,12.37
2019-02-04T21:36:00.864Z,11.43
2019-02-04T21:38:32.815Z,11.77
2019-02-04T21:41:04.817Z,12.57
2019-02-04T21:43:37.785Z,12.53
2019-02-04T21:46:10.775Z,13.40
2019-02-04T21:48:42.533Z,13.07
2019-02-04T21:51:14.094Z,12.60
2019-02-04T21:53:45.844Z,12.73
2019-02-04T21:56:17.342Z,12.97
2019-02-04T21:58:48.812Z,13.13
2019-02-04T22:01:20.634Z,13.73
2019-02-04T22:03:52.314Z,15.03
2019-02-04T22:06:24.135Z,14.67
2019-02-04T22:08:56.131Z,14.80
2019-02-04T22:11:28.370Z,14.97
2019-02-04T22:14:00.546Z,14.77
2019-02-04T22:16:32.689Z,15.03
2019-02-04T22:19:04.371Z,14.57
2019-02-04T22:21:38.058Z,13.63
2019-02-04T22:24:09.225Z,13.83
2019-02-04T22:26:40.911Z,14.97
2019-02-04T22:29:13.082Z,13.00
2019-02-04T22:31:44.773Z,13.30
2019-02-04T22:34:16.425Z,12.93
2019-02-04T22:36:48.321Z,13.20
2019-02-04T22:39:19.948Z,13.87
2019-02-04T22:41:51.831Z,12.60
2019-02-04T22:44:23.269Z,13.47
2019-02-04T22:46:54.691Z,12.50
2019-02-04T22:49:26.750Z,12.50
2019-02-04T22:52:03.781Z,12.30
2019-02-04T22:54:35.282Z,12.53
2019-02-04T22:57:06.865Z,12.17
2019-02-04T22:59:41.745Z,12.67
2019-02-04T23:02:16.788Z,10.67
2019-02-04T23:04:48.321Z,11.67
2019-02-04T23:07:19.922Z,11.73
2019-02-04T23:09:51.461Z,11.90
2019-02-04T23:12:23.242Z,11.90
2019-02-04T23:14:55.172Z,13.73
2019-02-04T23:17:27.215Z,13.00
2019-02-04T23:19:58.926Z,12.77
2019-02-04T23:22:31.029Z,12.27
2019-02-04T23:25:06.120Z,11.20
2019-02-04T23:27:37.674Z,13.20
2019-02-04T23:30:12.689Z,12.73
2019-02-04T23:32:44.903Z,12.50
2019-02-04T23:35:16.507Z,13.53
2019-02-04T23:37:47.995Z,12.60
2019-02-04T23:40:19.669Z,12.40
2019-02-04T23:42:51.311Z,11.97
2019-02-04T23:45:24.300Z,12.97
2019-02-04T23:47:57.338Z,11.33
2019-02-04T23:50:29.200Z,11.47
2019-02-04T23:53:00.862Z,12.30
2019-02-04T23:55:32.634Z,12.00
2019-02-04T23:58:06.870Z,11.87
